Reese Station, Ohio
Current Conditions -  °F | °C
As of 5:55 AM on Wednesday 22 Oct 2014 (Local Time) from KLCK Reporting Station
Scattered Clouds Scattered Clouds  
Wind Chill: 38°   Ceiling: Unl
Heat Index: 43°   Visibility: 10mi
Dew Point: 40°   Wind: 8mph
Humidity: 90%   Direction: 330°NNW
Pressure: 30.19"   Gusts: NA
Location:  39.8938°N, 82.9624°W
Report Text: KLCK 220955Z AUTO 33007KT 10SM SCT012 06/05 A3019 RMK AO2 T00610045
Loading
Personal Weather Stations






























Interactive Weather Map
Tropical Storm Tracking
New forecast layout! Learn more

10-Day Weather Forecast

Advertisements
Track Severe Weather on mobile